createdAt,value
2019-01-18T00:01:01.403Z,6.54
2019-01-18T00:03:28.585Z,6.44
2019-01-18T00:05:55.763Z,6.45
2019-01-18T00:08:22.782Z,6.48
2019-01-18T00:10:49.964Z,6.48
2019-01-18T00:13:17.667Z,6.41
2019-01-18T00:15:44.793Z,6.36
2019-01-18T00:18:12.447Z,6.35
2019-01-18T00:20:39.708Z,6.41
2019-01-18T00:23:06.836Z,6.44
2019-01-18T00:25:33.899Z,6.51
2019-01-18T00:28:00.904Z,6.50
2019-01-18T00:30:27.598Z,6.53
2019-01-18T00:32:54.591Z,6.45
2019-01-18T00:35:22.411Z,6.34
2019-01-18T00:37:50.179Z,6.32
2019-01-18T00:40:17.829Z,6.19
2019-01-18T00:42:44.609Z,6.15
2019-01-18T00:45:13.242Z,6.02
2019-01-18T00:47:40.900Z,6.00
2019-01-18T00:50:08.669Z,5.99
2019-01-18T00:52:35.733Z,5.99
2019-01-18T00:55:03.398Z,5.88
2019-01-18T00:57:30.492Z,5.66
2019-01-18T00:59:58.213Z,5.59
2019-01-18T01:02:25.134Z,5.58
2019-01-18T01:04:52.276Z,5.52
2019-01-18T01:07:18.854Z,5.58
2019-01-18T01:09:46.595Z,5.48
2019-01-18T01:12:15.284Z,5.51
2019-01-18T01:14:42.958Z,5.52
2019-01-18T01:17:10.104Z,5.44
2019-01-18T01:19:37.756Z,5.40
2019-01-18T01:22:05.532Z,5.22
2019-01-18T01:24:32.645Z,5.04
2019-01-18T01:26:59.629Z,5.07
2019-01-18T01:29:26.620Z,5.06
2019-01-18T01:31:53.683Z,4.94
2019-01-18T01:34:20.735Z,4.79
2019-01-18T01:36:48.428Z,4.77
2019-01-18T01:39:16.280Z,4.66
2019-01-18T01:41:43.281Z,4.57
2019-01-18T01:44:11.017Z,4.58
2019-01-18T01:46:38.770Z,4.49
2019-01-18T01:49:05.821Z,4.52
2019-01-18T01:51:33.587Z,4.38
2019-01-18T01:54:01.337Z,4.42
2019-01-18T01:56:29.021Z,4.37
2019-01-18T01:58:55.897Z,4.43
2019-01-18T02:01:22.921Z,4.35
2019-01-18T02:03:49.949Z,4.35
2019-01-18T02:06:17.596Z,4.38
2019-01-18T02:08:44.663Z,4.33
2019-01-18T02:11:12.311Z,4.27
2019-01-18T02:13:40.195Z,4.24
2019-01-18T02:16:07.136Z,4.15
2019-01-18T02:18:34.117Z,4.16
2019-01-18T02:21:01.183Z,4.17
2019-01-18T02:23:28.247Z,4.13
2019-01-18T02:25:55.925Z,4.07
2019-01-18T02:28:23.699Z,4.14
2019-01-18T02:30:50.707Z,4.19
2019-01-18T02:33:17.770Z,4.17
2019-01-18T02:35:44.834Z,4.20
2019-01-18T02:38:12.523Z,4.21
2019-01-18T02:40:40.692Z,4.23
2019-01-18T02:43:08.352Z,4.12
2019-01-18T02:45:36.062Z,4.04
2019-01-18T02:48:03.144Z,3.95
2019-01-18T02:50:30.212Z,3.97
2019-01-18T02:52:57.225Z,4.02
2019-01-18T02:55:29.011Z,4.05
2019-01-18T02:57:54.319Z,3.96
2019-01-18T03:00:21.374Z,4.05
2019-01-18T03:02:49.146Z,4.06
2019-01-18T03:05:16.141Z,4.09
2019-01-18T03:07:42.748Z,4.13
2019-01-18T03:10:10.477Z,4.12
2019-01-18T03:12:37.460Z,4.11
2019-01-18T03:15:04.547Z,4.06
2019-01-18T03:17:31.987Z,4.04
2019-01-18T03:19:59.095Z,3.96
2019-01-18T03:22:25.921Z,3.96
2019-01-18T03:24:53.777Z,3.90
2019-01-18T03:27:21.470Z,3.83
2019-01-18T03:29:49.230Z,3.83
2019-01-18T03:32:16.344Z,3.75
2019-01-18T03:34:43.372Z,3.80
2019-01-18T03:37:10.496Z,3.83
2019-01-18T03:39:38.232Z,3.89
2019-01-18T03:42:05.232Z,3.92
2019-01-18T03:44:32.396Z,3.87
2019-01-18T03:47:00.082Z,3.86
2019-01-18T03:49:27.598Z,3.88
2019-01-18T03:51:55.420Z,3.80
2019-01-18T03:54:23.093Z,3.69
2019-01-18T03:56:50.856Z,3.74
2019-01-18T03:59:17.941Z,3.76
2019-01-18T04:01:44.989Z,3.80
2019-01-18T04:04:11.993Z,3.87
2019-01-18T04:06:39.737Z,3.87
2019-01-18T04:09:07.504Z,3.95
2019-01-18T04:11:35.176Z,3.90
2019-01-18T04:14:02.276Z,3.80
2019-01-18T04:16:29.992Z,3.77
2019-01-18T04:18:57.637Z,3.69
2019-01-18T04:21:24.816Z,3.53
2019-01-18T04:23:52.573Z,3.37
2019-01-18T04:26:20.225Z,3.29
2019-01-18T04:28:47.638Z,3.30
2019-01-18T04:31:15.364Z,3.20
2019-01-18T04:33:43.009Z,3.28
2019-01-18T04:36:10.115Z,3.30
2019-01-18T04:38:36.892Z,3.35
2019-01-18T04:41:03.899Z,3.35
2019-01-18T04:43:30.942Z,3.32
2019-01-18T04:45:58.673Z,3.30
2019-01-18T04:48:25.660Z,3.31
2019-01-18T04:50:53.487Z,3.33
2019-01-18T04:53:21.240Z,3.35
2019-01-18T04:55:47.793Z,3.37
2019-01-18T04:58:15.449Z,3.23
2019-01-18T05:00:42.446Z,3.19
2019-01-18T05:03:09.561Z,3.10
2019-01-18T05:05:36.656Z,3.15
2019-01-18T05:08:04.333Z,3.15
2019-01-18T05:10:32.007Z,3.13
2019-01-18T05:12:59.063Z,3.11
2019-01-18T05:15:26.723Z,3.09
2019-01-18T05:17:53.867Z,3.05
2019-01-18T05:20:21.537Z,3.00
2019-01-18T05:22:48.553Z,3.03
2019-01-18T05:25:16.226Z,3.07
2019-01-18T05:27:43.908Z,3.01
2019-01-18T05:30:11.680Z,2.99
2019-01-18T05:32:38.768Z,2.97
2019-01-18T05:35:06.477Z,2.95
2019-01-18T05:37:33.481Z,2.89
2019-01-18T05:40:01.178Z,2.89
2019-01-18T05:42:28.149Z,2.91
2019-01-18T05:44:55.913Z,2.93
2019-01-18T05:47:23.022Z,2.86
2019-01-18T05:49:50.053Z,2.83
2019-01-18T05:52:17.177Z,2.95
2019-01-18T05:54:44.908Z,2.95
2019-01-18T05:57:11.948Z,3.02
2019-01-18T05:59:39.010Z,2.97
2019-01-18T06:02:06.185Z,3.01
2019-01-18T06:04:32.838Z,3.04
2019-01-18T06:07:02.678Z,2.97
2019-01-18T06:09:29.473Z,2.99
2019-01-18T06:11:56.141Z,2.98
2019-01-18T06:14:23.429Z,3.05
2019-01-18T06:16:50.107Z,3.10
2019-01-18T06:19:18.559Z,3.14
2019-01-18T06:21:45.513Z,3.20
2019-01-18T06:24:15.735Z,3.21
2019-01-18T06:26:43.242Z,3.17
2019-01-18T06:29:18.852Z,3.13
2019-01-18T06:31:46.045Z,3.20
2019-01-18T06:34:12.691Z,3.16
2019-01-18T06:36:39.774Z,3.17
2019-01-18T06:39:06.933Z,3.08
2019-01-18T06:41:33.525Z,3.04
2019-01-18T06:44:00.552Z,3.00
2019-01-18T06:46:28.391Z,2.99
2019-01-18T06:48:55.021Z,3.03
2019-01-18T06:51:22.100Z,3.08
2019-01-18T06:53:48.730Z,3.06
2019-01-18T06:56:15.711Z,3.07
2019-01-18T06:58:42.286Z,3.03
2019-01-18T07:01:10.126Z,3.01
2019-01-18T07:03:36.761Z,2.98
2019-01-18T07:06:03.900Z,3.01
2019-01-18T07:08:30.951Z,2.93
2019-01-18T07:10:58.000Z,2.84
2019-01-18T07:13:24.672Z,2.91
2019-01-18T07:15:51.273Z,2.93
2019-01-18T07:18:17.871Z,2.99
2019-01-18T07:20:44.940Z,3.06
2019-01-18T07:23:11.999Z,3.04
2019-01-18T07:25:39.051Z,3.09
2019-01-18T07:28:05.759Z,3.10
2019-01-18T07:30:32.849Z,3.14
2019-01-18T07:33:00.429Z,3.13
2019-01-18T07:35:27.143Z,3.09
2019-01-18T07:37:54.208Z,3.02
2019-01-18T07:40:20.847Z,3.11
2019-01-18T07:42:47.488Z,3.17
2019-01-18T07:45:15.192Z,3.25
2019-01-18T07:47:42.236Z,3.20
2019-01-18T07:50:08.904Z,3.17
2019-01-18T07:52:35.972Z,3.25
2019-01-18T07:55:03.429Z,3.32
2019-01-18T07:57:30.371Z,3.28
2019-01-18T07:59:58.024Z,3.26
2019-01-18T08:02:25.133Z,3.29
2019-01-18T08:04:52.138Z,3.21
2019-01-18T08:07:19.544Z,3.20
2019-01-18T08:09:46.225Z,3.15
2019-01-18T08:12:13.336Z,3.16
2019-01-18T08:14:40.434Z,3.04
2019-01-18T08:17:08.010Z,3.10
2019-01-18T08:19:35.146Z,3.12
2019-01-18T08:22:02.242Z,3.13
2019-01-18T08:24:29.364Z,3.10
2019-01-18T08:26:56.029Z,3.05
2019-01-18T08:29:23.612Z,3.04
2019-01-18T08:31:50.268Z,3.00
2019-01-18T08:34:16.879Z,2.96
2019-01-18T08:36:43.990Z,2.97
2019-01-18T08:39:10.609Z,2.94
2019-01-18T08:41:37.644Z,2.93
2019-01-18T08:44:04.318Z,2.98
2019-01-18T08:46:31.407Z,2.97
2019-01-18T08:48:58.555Z,2.80
2019-01-18T08:51:25.308Z,2.77
2019-01-18T08:53:52.303Z,2.61
2019-01-18T08:56:19.024Z,2.63
2019-01-18T08:58:46.213Z,2.62
2019-01-18T09:01:14.140Z,2.68
2019-01-18T09:03:40.826Z,2.67
2019-01-18T09:06:07.585Z,2.76
2019-01-18T09:08:34.693Z,2.76
2019-01-18T09:11:01.737Z,2.82
2019-01-18T09:13:28.896Z,2.91
2019-01-18T09:15:55.620Z,2.97
2019-01-18T09:18:22.679Z,3.02
2019-01-18T09:20:49.911Z,2.95
2019-01-18T09:23:16.571Z,3.04
2019-01-18T09:25:43.276Z,3.00
2019-01-18T09:28:10.372Z,3.06
2019-01-18T09:30:37.214Z,3.10
2019-01-18T09:33:04.309Z,2.89
2019-01-18T09:35:32.106Z,2.76
2019-01-18T09:37:59.174Z,2.71
2019-01-18T09:40:25.783Z,2.70
2019-01-18T09:42:52.911Z,2.70
2019-01-18T09:45:19.518Z,2.64
2019-01-18T09:47:46.108Z,2.64
2019-01-18T09:50:13.127Z,2.56
2019-01-18T09:52:39.734Z,2.63
2019-01-18T09:55:06.336Z,2.75
2019-01-18T09:57:33.257Z,2.70
2019-01-18T09:59:59.868Z,2.72
2019-01-18T10:02:26.687Z,2.63
2019-01-18T10:04:53.770Z,2.59
2019-01-18T10:07:20.993Z,2.58
2019-01-18T10:09:48.047Z,2.60
2019-01-18T10:12:14.748Z,2.64
2019-01-18T10:14:41.351Z,2.65
2019-01-18T10:17:08.425Z,2.68
2019-01-18T10:19:35.459Z,2.68
2019-01-18T10:22:02.529Z,2.68
2019-01-18T10:24:29.095Z,2.65
2019-01-18T10:26:56.201Z,2.64
2019-01-18T10:29:28.142Z,2.67
2019-01-18T10:31:56.067Z,2.66
2019-01-18T10:34:20.601Z,2.61
2019-01-18T10:36:47.662Z,2.62
2019-01-18T10:39:15.357Z,2.51
2019-01-18T10:41:43.131Z,2.43
2019-01-18T10:44:09.762Z,2.38
2019-01-18T10:46:37.283Z,2.37
2019-01-18T10:49:03.919Z,2.38
2019-01-18T10:51:30.973Z,2.47
2019-01-18T10:53:57.671Z,2.56
2019-01-18T10:56:24.738Z,2.63
2019-01-18T10:58:51.863Z,2.65
2019-01-18T11:01:20.038Z,2.70
2019-01-18T11:03:47.250Z,2.48
2019-01-18T11:06:13.895Z,2.24
2019-01-18T11:08:41.044Z,2.16
2019-01-18T11:11:08.263Z,2.10
2019-01-18T11:13:35.404Z,2.09
2019-01-18T11:16:02.497Z,2.10
2019-01-18T11:18:29.102Z,2.07
2019-01-18T11:20:55.706Z,2.09
2019-01-18T11:23:22.807Z,2.12
2019-01-18T11:25:49.377Z,2.15
2019-01-18T11:28:16.020Z,2.06
2019-01-18T11:30:43.129Z,2.09
2019-01-18T11:33:10.167Z,1.97
2019-01-18T11:35:37.235Z,1.85
2019-01-18T11:38:03.903Z,1.93
2019-01-18T11:40:30.592Z,1.94
2019-01-18T11:42:57.645Z,2.01
2019-01-18T11:45:24.292Z,2.04
2019-01-18T11:47:51.352Z,2.05
2019-01-18T11:50:17.953Z,2.01
2019-01-18T11:52:44.612Z,1.88
2019-01-18T11:55:11.661Z,1.86
2019-01-18T11:57:38.238Z,1.84
2019-01-18T12:00:05.238Z,1.81
2019-01-18T12:02:32.308Z,1.77
2019-01-18T12:04:59.042Z,1.75
2019-01-18T12:07:25.706Z,1.68
2019-01-18T12:09:52.799Z,1.55
2019-01-18T12:12:19.441Z,1.46
2019-01-18T12:14:46.086Z,1.51
2019-01-18T12:17:13.702Z,1.48
2019-01-18T12:19:40.476Z,1.38
2019-01-18T12:22:07.210Z,1.37
2019-01-18T12:24:34.306Z,1.38
2019-01-18T12:27:00.902Z,1.34
2019-01-18T12:29:27.551Z,1.39
2019-01-18T12:31:54.165Z,1.43
2019-01-18T12:34:20.743Z,1.48
2019-01-18T12:36:47.863Z,1.45
2019-01-18T12:39:14.686Z,1.49
2019-01-18T12:41:41.435Z,1.47
2019-01-18T12:44:08.502Z,1.38
2019-01-18T12:46:35.583Z,1.30
2019-01-18T12:49:02.157Z,1.32
2019-01-18T12:51:29.275Z,1.30
2019-01-18T12:53:56.005Z,1.29
2019-01-18T12:56:22.652Z,1.25
2019-01-18T12:58:49.665Z,1.24
2019-01-18T13:01:16.843Z,1.22
2019-01-18T13:03:44.556Z,1.21
2019-01-18T13:06:12.089Z,1.19
2019-01-18T13:08:38.820Z,1.18
2019-01-18T13:11:05.856Z,1.17
2019-01-18T13:13:32.491Z,1.18
2019-01-18T13:15:59.159Z,1.23
2019-01-18T13:18:25.811Z,1.26
2019-01-18T13:20:52.479Z,1.31
2019-01-18T13:23:19.750Z,1.20
2019-01-18T13:25:46.447Z,1.30
2019-01-18T13:28:13.133Z,1.33
2019-01-18T13:30:39.834Z,1.33
2019-01-18T13:33:06.892Z,1.29
2019-01-18T13:35:33.689Z,1.24
2019-01-18T13:38:00.372Z,1.22
2019-01-18T13:40:28.125Z,1.32
2019-01-18T13:42:54.852Z,1.31
2019-01-18T13:45:24.443Z,1.32
2019-01-18T13:47:51.048Z,1.37
2019-01-18T13:50:18.142Z,1.44
2019-01-18T13:52:44.864Z,1.45
2019-01-18T13:55:11.965Z,1.44
2019-01-18T13:57:39.087Z,1.48
2019-01-18T14:00:05.747Z,1.46
2019-01-18T14:02:32.781Z,1.47
2019-01-18T14:04:59.913Z,1.54
2019-01-18T14:07:26.544Z,1.42
2019-01-18T14:09:53.699Z,1.37
2019-01-18T14:12:20.310Z,1.41
2019-01-18T14:14:47.006Z,1.46
2019-01-18T14:17:14.168Z,1.53
2019-01-18T14:19:40.875Z,1.47
2019-01-18T14:22:08.485Z,1.47
2019-01-18T14:24:35.585Z,1.49
2019-01-18T14:27:03.641Z,1.48
2019-01-18T14:29:30.762Z,1.44
2019-01-18T14:31:57.554Z,1.47
2019-01-18T14:34:26.638Z,1.48
2019-01-18T14:36:53.332Z,1.51
2019-01-18T14:39:20.545Z,1.36
2019-01-18T14:41:47.262Z,1.42
2019-01-18T14:44:14.316Z,1.47
2019-01-18T14:46:41.057Z,1.50
2019-01-18T14:49:08.133Z,1.55
2019-01-18T14:51:34.816Z,1.53
2019-01-18T14:54:02.062Z,1.60
2019-01-18T14:56:29.165Z,1.68
2019-01-18T14:58:56.216Z,1.69
2019-01-18T15:01:23.336Z,1.67
2019-01-18T15:03:54.082Z,1.60
2019-01-18T15:06:18.386Z,1.60
2019-01-18T15:08:45.505Z,1.52
2019-01-18T15:11:12.584Z,1.50
2019-01-18T15:13:39.236Z,1.45
2019-01-18T15:16:05.973Z,1.38
2019-01-18T15:18:32.679Z,1.34
2019-01-18T15:20:59.756Z,1.30
2019-01-18T15:23:26.902Z,1.29
2019-01-18T15:25:53.616Z,1.19
2019-01-18T15:28:20.245Z,1.09
2019-01-18T15:30:47.371Z,0.97
2019-01-18T15:33:13.984Z,1.01
2019-01-18T15:35:40.566Z,1.02
2019-01-18T15:38:08.367Z,1.02
2019-01-18T15:40:35.550Z,1.00
2019-01-18T15:43:02.666Z,1.01
2019-01-18T15:45:29.449Z,0.99
2019-01-18T15:47:56.133Z,0.97
2019-01-18T15:50:22.844Z,0.92
2019-01-18T15:52:50.038Z,0.93
2019-01-18T15:55:16.703Z,0.90
2019-01-18T15:57:43.370Z,0.81
2019-01-18T16:00:10.391Z,0.78
2019-01-18T16:02:37.029Z,0.75
2019-01-18T16:05:04.100Z,0.76
2019-01-18T16:07:31.124Z,0.75
2019-01-18T16:09:58.248Z,0.75
2019-01-18T16:12:25.291Z,0.73
2019-01-18T16:14:52.245Z,0.73
2019-01-18T16:17:19.436Z,0.68
2019-01-18T16:19:47.203Z,0.56
2019-01-18T16:22:15.088Z,0.58
2019-01-18T16:24:41.720Z,0.56
2019-01-18T16:27:08.577Z,0.58
2019-01-18T16:29:41.666Z,0.47
2019-01-18T16:32:08.291Z,0.48
2019-01-18T16:34:35.364Z,0.45
2019-01-18T16:37:02.471Z,0.50
2019-01-18T16:39:29.772Z,0.50
2019-01-18T16:41:56.385Z,0.49
2019-01-18T16:44:23.538Z,0.49
2019-01-18T16:46:50.593Z,0.51
2019-01-18T16:49:17.259Z,0.45
2019-01-18T16:51:44.225Z,0.30
2019-01-18T16:54:10.905Z,0.33
2019-01-18T16:56:38.004Z,0.24
2019-01-18T16:59:05.169Z,0.17
2019-01-18T17:01:31.880Z,0.19
2019-01-18T17:03:58.564Z,0.22
2019-01-18T17:06:25.292Z,0.27
2019-01-18T17:08:52.428Z,0.26
2019-01-18T17:11:19.115Z,0.23
2019-01-18T17:13:46.382Z,0.19
2019-01-18T17:16:13.025Z,0.16
2019-01-18T17:18:39.718Z,0.15
2019-01-18T17:21:06.826Z,0.13
2019-01-18T17:23:33.904Z,0.15
2019-01-18T17:26:00.926Z,0.16
2019-01-18T17:28:27.744Z,0.19
2019-01-18T17:30:54.820Z,0.22
2019-01-18T17:33:21.865Z,0.21
2019-01-18T17:35:48.606Z,0.23
2019-01-18T17:38:15.294Z,0.19
2019-01-18T17:40:42.402Z,0.12
2019-01-18T17:43:09.177Z,0.03
2019-01-18T17:45:36.654Z,-0.06
2019-01-18T17:48:03.676Z,-0.06
2019-01-18T17:50:30.366Z,-0.10
2019-01-18T17:52:57.061Z,-0.13
2019-01-18T17:55:24.949Z,-0.15
2019-01-18T17:57:51.663Z,-0.15
2019-01-18T18:00:18.784Z,-0.16
2019-01-18T18:02:45.960Z,-0.19
2019-01-18T18:05:12.645Z,-0.14
2019-01-18T18:07:39.915Z,-0.14
2019-01-18T18:10:06.595Z,-0.13
2019-01-18T18:12:33.695Z,-0.11
2019-01-18T18:15:00.455Z,-0.13
2019-01-18T18:17:27.179Z,-0.12
2019-01-18T18:19:54.683Z,-0.17
2019-01-18T18:22:21.806Z,-0.26
2019-01-18T18:24:48.835Z,-0.26
2019-01-18T18:27:15.604Z,-0.25
2019-01-18T18:29:42.349Z,-0.24
2019-01-18T18:32:09.008Z,-0.23
2019-01-18T18:34:36.153Z,-0.21
2019-01-18T18:37:02.884Z,-0.21
2019-01-18T18:39:31.027Z,-0.29
2019-01-18T18:41:57.684Z,-0.39
2019-01-18T18:44:24.348Z,-0.48
2019-01-18T18:46:51.112Z,-0.49
2019-01-18T18:49:20.174Z,-0.57
2019-01-18T18:51:50.426Z,-0.63
2019-01-18T18:54:18.147Z,-0.64
2019-01-18T18:56:45.080Z,-0.64
2019-01-18T18:59:11.754Z,-0.61
2019-01-18T19:01:38.472Z,-0.56
2019-01-18T19:04:05.166Z,-0.52
2019-01-18T19:06:31.903Z,-0.54
2019-01-18T19:08:59.035Z,-0.58
2019-01-18T19:11:25.764Z,-0.57
2019-01-18T19:13:52.428Z,-0.59
2019-01-18T19:16:19.505Z,-0.62
2019-01-18T19:18:46.578Z,-0.63
2019-01-18T19:21:14.407Z,-0.62
2019-01-18T19:23:41.591Z,-0.60
2019-01-18T19:26:08.294Z,-0.60
2019-01-18T19:28:35.383Z,-0.63
2019-01-18T19:31:02.506Z,-0.63
2019-01-18T19:33:29.555Z,-0.61
2019-01-18T19:35:56.256Z,-0.58
2019-01-18T19:38:23.360Z,-0.58
2019-01-18T19:40:50.915Z,-0.58
2019-01-18T19:43:17.974Z,-0.61
2019-01-18T19:45:44.703Z,-0.65
2019-01-18T19:48:11.927Z,-0.66
2019-01-18T19:50:39.048Z,-0.69
2019-01-18T19:53:05.817Z,-0.67
2019-01-18T19:55:32.458Z,-0.68
2019-01-18T19:57:59.653Z,-0.72
2019-01-18T20:00:26.801Z,-0.73
2019-01-18T20:02:53.559Z,-0.74
2019-01-18T20:05:21.888Z,-0.78
2019-01-18T20:07:49.342Z,-0.84
2019-01-18T20:10:16.526Z,-0.84
2019-01-18T20:12:43.249Z,-0.84
2019-01-18T20:15:10.075Z,-0.87
2019-01-18T20:17:36.774Z,-0.88
2019-01-18T20:20:03.931Z,-0.92
2019-01-18T20:22:31.230Z,-0.92
2019-01-18T20:24:57.923Z,-0.92
2019-01-18T20:27:24.646Z,-0.91
2019-01-18T20:29:51.336Z,-0.90
2019-01-18T20:32:18.568Z,-0.87
2019-01-18T20:34:45.831Z,-0.85
2019-01-18T20:37:12.908Z,-0.85
2019-01-18T20:39:40.038Z,-0.84
2019-01-18T20:42:07.223Z,-0.84
2019-01-18T20:44:33.958Z,-0.85
2019-01-18T20:47:00.611Z,-0.87
2019-01-18T20:49:27.413Z,-0.94
2019-01-18T20:51:54.067Z,-0.98
2019-01-18T20:54:21.820Z,-1.00
2019-01-18T20:56:49.635Z,-1.00
2019-01-18T20:59:16.945Z,-0.99
2019-01-18T21:01:44.498Z,-1.00
2019-01-18T21:04:11.240Z,-1.12
2019-01-18T21:06:37.979Z,-1.24
2019-01-18T21:09:05.411Z,-1.26
2019-01-18T21:11:32.787Z,-1.31
2019-01-18T21:14:01.822Z,-1.33
2019-01-18T21:16:28.626Z,-1.35
2019-01-18T21:18:55.853Z,-1.37
2019-01-18T21:21:23.552Z,-1.37
2019-01-18T21:23:51.282Z,-1.38
2019-01-18T21:26:18.475Z,-1.40
2019-01-18T21:28:45.140Z,-1.41
2019-01-18T21:31:12.146Z,-1.44
2019-01-18T21:33:39.295Z,-1.48
2019-01-18T21:36:06.627Z,-1.51
2019-01-18T21:38:33.579Z,-1.53
2019-01-18T21:41:01.048Z,-1.55
2019-01-18T21:43:28.326Z,-1.55
2019-01-18T21:45:55.061Z,-1.56
2019-01-18T21:48:22.135Z,-1.54
2019-01-18T21:50:51.158Z,-1.52
2019-01-18T21:53:18.625Z,-1.53
2019-01-18T21:55:45.846Z,-1.50
2019-01-18T21:58:14.427Z,-1.46
2019-01-18T22:00:41.635Z,-1.45
2019-01-18T22:03:09.011Z,-1.44
2019-01-18T22:05:35.778Z,-1.42
2019-01-18T22:08:02.514Z,-1.42
2019-01-18T22:10:34.514Z,-1.46
2019-01-18T22:13:02.601Z,-1.47
2019-01-18T22:15:29.969Z,-1.55
2019-01-18T22:17:56.755Z,-1.65
2019-01-18T22:20:25.172Z,-1.67
2019-01-18T22:22:52.560Z,-1.74
2019-01-18T22:25:19.398Z,-1.78
2019-01-18T22:27:46.447Z,-1.76
2019-01-18T22:30:13.309Z,-1.76
2019-01-18T22:32:40.403Z,-1.72
2019-01-18T22:35:07.511Z,-1.71
2019-01-18T22:37:34.381Z,-1.66
2019-01-18T22:40:01.423Z,-1.64
2019-01-18T22:42:28.183Z,-1.60
2019-01-18T22:44:55.300Z,-1.58
2019-01-18T22:47:23.102Z,-1.56
2019-01-18T22:49:50.865Z,-1.55
2019-01-18T22:52:17.876Z,-1.53
2019-01-18T22:54:45.718Z,-1.52
2019-01-18T22:57:12.835Z,-1.53
2019-01-18T22:59:39.861Z,-1.53
2019-01-18T23:02:06.990Z,-1.53
2019-01-18T23:04:33.790Z,-1.54
2019-01-18T23:07:00.440Z,-1.56
2019-01-18T23:09:28.152Z,-1.57
2019-01-18T23:11:54.894Z,-1.58
2019-01-18T23:14:21.638Z,-1.60
2019-01-18T23:16:48.757Z,-1.59
2019-01-18T23:19:15.909Z,-1.60
2019-01-18T23:21:42.602Z,-1.62
2019-01-18T23:24:09.301Z,-1.63
2019-01-18T23:26:36.063Z,-1.66
2019-01-18T23:29:02.846Z,-1.70
2019-01-18T23:31:29.938Z,-1.71
2019-01-18T23:33:56.609Z,-1.70
2019-01-18T23:36:23.709Z,-1.71
2019-01-18T23:38:50.407Z,-1.72
2019-01-18T23:41:17.159Z,-1.74
2019-01-18T23:43:44.210Z,-1.78
2019-01-18T23:46:11.287Z,-1.78
2019-01-18T23:48:38.414Z,-1.79
2019-01-18T23:51:05.475Z,-1.77
2019-01-18T23:53:32.637Z,-1.76
2019-01-18T23:55:59.762Z,-1.74
2019-01-18T23:58:27.486Z,-1.73
